sensor_id;sensor_type;location;lat;lon;timestamp;temperature;humidity
10692;DHT22;5396;50.950;6.988;2024-03-17T00:02:02;6.50;99.90
10692;DHT22;5396;50.950;6.988;2024-03-17T00:04:28;6.50;99.90
10692;DHT22;5396;50.950;6.988;2024-03-17T00:06:53;6.50;99.90
10692;DHT22;5396;50.950;6.988;2024-03-17T00:09:20;6.50;99.90
10692;DHT22;5396;50.950;6.988;2024-03-17T00:11:45;6.50;99.90
10692;DHT22;5396;50.950;6.988;2024-03-17T00:14:11;6.40;99.90
10692;DHT22;5396;50.950;6.988;2024-03-17T00:16:37;6.40;99.90
10692;DHT22;5396;50.950;6.988;2024-03-17T00:19:02;6.30;99.90
10692;DHT22;5396;50.950;6.988;2024-03-17T00:21:28;6.30;99.90
10692;DHT22;5396;50.950;6.988;2024-03-17T00:23:54;6.30;99.90
10692;DHT22;5396;50.950;6.988;2024-03-17T00:26:19;6.20;99.90
10692;DHT22;5396;50.950;6.988;2024-03-17T00:28:45;6.20;99.90
10692;DHT22;5396;50.950;6.988;2024-03-17T00:31:13;6.30;99.90
10692;DHT22;5396;50.950;6.988;2024-03-17T00:33:40;6.20;99.90
10692;DHT22;5396;50.950;6.988;2024-03-17T00:36:05;6.20;99.90
10692;DHT22;5396;50.950;6.988;2024-03-17T00:38:31;6.20;99.90
10692;DHT22;5396;50.950;6.988;2024-03-17T00:40:56;6.10;99.90
10692;DHT22;5396;50.950;6.988;2024-03-17T00:43:22;6.10;99.90
10692;DHT22;5396;50.950;6.988;2024-03-17T00:45:53;6.10;99.90
10692;DHT22;5396;50.950;6.988;2024-03-17T00:48:19;6.10;99.90
10692;DHT22;5396;50.950;6.988;2024-03-17T00:50:44;6.00;99.90
10692;DHT22;5396;50.950;6.988;2024-03-17T00:53:10;6.00;99.90
10692;DHT22;5396;50.950;6.988;2024-03-17T00:55:35;6.00;99.90
10692;DHT22;5396;50.950;6.988;2024-03-17T00:58:01;6.00;99.90
10692;DHT22;5396;50.950;6.988;2024-03-17T01:00:26;6.00;99.90
10692;DHT22;5396;50.950;6.988;2024-03-17T01:02:52;6.00;99.90
10692;DHT22;5396;50.950;6.988;2024-03-17T01:05:17;6.00;99.90
10692;DHT22;5396;50.950;6.988;2024-03-17T01:07:43;6.10;99.90
10692;DHT22;5396;50.950;6.988;2024-03-17T01:10:08;6.00;99.90
10692;DHT22;5396;50.950;6.988;2024-03-17T01:12:34;6.00;99.90
10692;DHT22;5396;50.950;6.988;2024-03-17T01:15:02;5.90;99.90
10692;DHT22;5396;50.950;6.988;2024-03-17T01:17:28;5.90;99.90
10692;DHT22;5396;50.950;6.988;2024-03-17T01:19:54;5.90;99.90
10692;DHT22;5396;50.950;6.988;2024-03-17T01:22:20;5.80;99.90
10692;DHT22;5396;50.950;6.988;2024-03-17T01:24:45;5.80;99.90
10692;DHT22;5396;50.950;6.988;2024-03-17T01:27:11;5.80;99.90
10692;DHT22;5396;50.950;6.988;2024-03-17T01:29:39;5.80;99.90
10692;DHT22;5396;50.950;6.988;2024-03-17T01:32:05;5.80;99.90
10692;DHT22;5396;50.950;6.988;2024-03-17T01:34:31;5.80;99.90
10692;DHT22;5396;50.950;6.988;2024-03-17T01:36:56;5.80;99.90
10692;DHT22;5396;50.950;6.988;2024-03-17T01:39:22;5.80;99.90
10692;DHT22;5396;50.950;6.988;2024-03-17T01:41:47;5.80;99.90
10692;DHT22;5396;50.950;6.988;2024-03-17T01:44:22;5.80;99.90
10692;DHT22;5396;50.950;6.988;2024-03-17T01:46:49;5.70;99.90
10692;DHT22;5396;50.950;6.988;2024-03-17T01:49:15;5.60;99.90
10692;DHT22;5396;50.950;6.988;2024-03-17T01:51:41;5.60;99.90
10692;DHT22;5396;50.950;6.988;2024-03-17T01:54:07;5.60;99.90
10692;DHT22;5396;50.950;6.988;2024-03-17T01:56:33;5.50;99.90
10692;DHT22;5396;50.950;6.988;2024-03-17T01:58:59;5.50;99.90
10692;DHT22;5396;50.950;6.988;2024-03-17T02:01:25;5.60;99.90
10692;DHT22;5396;50.950;6.988;2024-03-17T02:03:51;5.60;99.90
10692;DHT22;5396;50.950;6.988;2024-03-17T02:06:16;5.50;99.90
10692;DHT22;5396;50.950;6.988;2024-03-17T02:08:51;5.50;99.90
10692;DHT22;5396;50.950;6.988;2024-03-17T02:11:24;5.50;99.90
10692;DHT22;5396;50.950;6.988;2024-03-17T02:13:50;5.40;99.90
10692;DHT22;5396;50.950;6.988;2024-03-17T02:16:16;5.30;99.90
10692;DHT22;5396;50.950;6.988;2024-03-17T02:18:44;5.30;99.90
10692;DHT22;5396;50.950;6.988;2024-03-17T02:21:09;5.20;99.90
10692;DHT22;5396;50.950;6.988;2024-03-17T02:23:35;5.20;99.90
10692;DHT22;5396;50.950;6.988;2024-03-17T02:26:00;5.20;99.90
10692;DHT22;5396;50.950;6.988;2024-03-17T02:28:26;5.10;99.90
10692;DHT22;5396;50.950;6.988;2024-03-17T02:30:51;5.10;99.90
10692;DHT22;5396;50.950;6.988;2024-03-17T02:33:17;5.10;99.90
10692;DHT22;5396;50.950;6.988;2024-03-17T02:35:43;5.10;99.90
10692;DHT22;5396;50.950;6.988;2024-03-17T02:38:09;5.00;99.90
10692;DHT22;5396;50.950;6.988;2024-03-17T02:40:37;5.00;99.90
10692;DHT22;5396;50.950;6.988;2024-03-17T02:43:02;5.00;99.90
10692;DHT22;5396;50.950;6.988;2024-03-17T02:45:28;5.00;99.90
10692;DHT22;5396;50.950;6.988;2024-03-17T02:47:53;5.00;99.90
10692;DHT22;5396;50.950;6.988;2024-03-17T02:50:19;5.00;99.90
10692;DHT22;5396;50.950;6.988;2024-03-17T02:52:44;5.00;99.90
10692;DHT22;5396;50.950;6.988;2024-03-17T02:55:10;5.10;99.90
10692;DHT22;5396;50.950;6.988;2024-03-17T02:57:35;5.10;99.90
10692;DHT22;5396;50.950;6.988;2024-03-17T03:00:01;5.10;99.90
10692;DHT22;5396;50.950;6.988;2024-03-17T03:02:29;5.20;99.90
10692;DHT22;5396;50.950;6.988;2024-03-17T03:04:55;5.20;99.90
10692;DHT22;5396;50.950;6.988;2024-03-17T03:07:20;5.20;99.90
10692;DHT22;5396;50.950;6.988;2024-03-17T03:09:46;5.10;99.90
10692;DHT22;5396;50.950;6.988;2024-03-17T03:12:12;5.00;99.90
10692;DHT22;5396;50.950;6.988;2024-03-17T03:14:38;4.90;99.90
10692;DHT22;5396;50.950;6.988;2024-03-17T03:17:03;4.90;99.90
10692;DHT22;5396;50.950;6.988;2024-03-17T03:19:28;4.90;99.90
10692;DHT22;5396;50.950;6.988;2024-03-17T03:21:55;5.00;99.90
10692;DHT22;5396;50.950;6.988;2024-03-17T03:24:21;5.00;99.90
10692;DHT22;5396;50.950;6.988;2024-03-17T03:26:47;5.00;99.90
10692;DHT22;5396;50.950;6.988;2024-03-17T03:29:13;5.00;99.90
10692;DHT22;5396;50.950;6.988;2024-03-17T03:31:39;5.00;99.90
10692;DHT22;5396;50.950;6.988;2024-03-17T03:34:05;5.00;99.90
10692;DHT22;5396;50.950;6.988;2024-03-17T03:36:33;5.00;99.90
10692;DHT22;5396;50.950;6.988;2024-03-17T03:38:58;5.00;99.90
10692;DHT22;5396;50.950;6.988;2024-03-17T03:41:24;4.90;99.90
10692;DHT22;5396;50.950;6.988;2024-03-17T03:43:52;5.00;99.90
10692;DHT22;5396;50.950;6.988;2024-03-17T03:46:19;4.90;99.90
10692;DHT22;5396;50.950;6.988;2024-03-17T03:48:44;4.90;99.90
10692;DHT22;5396;50.950;6.988;2024-03-17T03:51:10;4.90;99.90
10692;DHT22;5396;50.950;6.988;2024-03-17T03:53:36;4.80;99.90
10692;DHT22;5396;50.950;6.988;2024-03-17T03:56:03;4.90;99.90
10692;DHT22;5396;50.950;6.988;2024-03-17T03:58:32;4.90;99.90
10692;DHT22;5396;50.950;6.988;2024-03-17T04:00:57;4.90;99.90
10692;DHT22;5396;50.950;6.988;2024-03-17T04:03:23;4.90;99.90
10692;DHT22;5396;50.950;6.988;2024-03-17T04:05:48;4.80;99.90
10692;DHT22;5396;50.950;6.988;2024-03-17T04:08:14;4.80;99.90
10692;DHT22;5396;50.950;6.988;2024-03-17T04:10:39;4.70;99.90
10692;DHT22;5396;50.950;6.988;2024-03-17T04:13:05;4.70;99.90
10692;DHT22;5396;50.950;6.988;2024-03-17T04:15:31;4.60;99.90
10692;DHT22;5396;50.950;6.988;2024-03-17T04:17:56;4.50;99.90
10692;DHT22;5396;50.950;6.988;2024-03-17T04:20:21;4.50;99.90
10692;DHT22;5396;50.950;6.988;2024-03-17T04:22:47;4.50;99.90
10692;DHT22;5396;50.950;6.988;2024-03-17T04:25:13;4.60;99.90
10692;DHT22;5396;50.950;6.988;2024-03-17T04:27:39;4.70;99.90
10692;DHT22;5396;50.950;6.988;2024-03-17T04:30:05;4.70;99.90
10692;DHT22;5396;50.950;6.988;2024-03-17T04:32:31;4.70;99.90
10692;DHT22;5396;50.950;6.988;2024-03-17T04:34:57;4.70;99.90
10692;DHT22;5396;50.950;6.988;2024-03-17T04:37:22;4.70;99.90
10692;DHT22;5396;50.950;6.988;2024-03-17T04:39:48;4.70;99.90
10692;DHT22;5396;50.950;6.988;2024-03-17T04:42:14;4.70;99.90
10692;DHT22;5396;50.950;6.988;2024-03-17T04:44:44;4.80;99.90
10692;DHT22;5396;50.950;6.988;2024-03-17T04:47:09;4.80;99.90
10692;DHT22;5396;50.950;6.988;2024-03-17T04:52:01;4.80;99.90
10692;DHT22;5396;50.950;6.988;2024-03-17T04:54:26;4.90;99.90
10692;DHT22;5396;50.950;6.988;2024-03-17T04:56:52;5.00;99.90
10692;DHT22;5396;50.950;6.988;2024-03-17T04:59:17;5.00;99.90
10692;DHT22;5396;50.950;6.988;2024-03-17T05:01:43;5.00;99.90
10692;DHT22;5396;50.950;6.988;2024-03-17T05:04:08;5.00;99.90
10692;DHT22;5396;50.950;6.988;2024-03-17T05:06:34;5.00;99.90
10692;DHT22;5396;50.950;6.988;2024-03-17T05:08:59;5.10;99.90
10692;DHT22;5396;50.950;6.988;2024-03-17T05:11:25;5.00;99.90
10692;DHT22;5396;50.950;6.988;2024-03-17T05:13:50;5.00;99.90
10692;DHT22;5396;50.950;6.988;2024-03-17T05:16:16;5.00;99.90
10692;DHT22;5396;50.950;6.988;2024-03-17T05:18:41;4.90;99.90
10692;DHT22;5396;50.950;6.988;2024-03-17T05:21:08;4.90;99.90
10692;DHT22;5396;50.950;6.988;2024-03-17T05:23:35;4.90;99.90
10692;DHT22;5396;50.950;6.988;2024-03-17T05:26:00;4.90;99.90
10692;DHT22;5396;50.950;6.988;2024-03-17T05:28:27;4.80;99.90
10692;DHT22;5396;50.950;6.988;2024-03-17T05:30:52;4.70;99.90
10692;DHT22;5396;50.950;6.988;2024-03-17T05:33:18;4.80;99.90
10692;DHT22;5396;50.950;6.988;2024-03-17T05:35:51;4.80;99.90
10692;DHT22;5396;50.950;6.988;2024-03-17T05:38:18;4.80;99.90
10692;DHT22;5396;50.950;6.988;2024-03-17T05:40:51;4.90;99.90
10692;DHT22;5396;50.950;6.988;2024-03-17T05:43:17;5.00;99.90
10692;DHT22;5396;50.950;6.988;2024-03-17T05:45:42;5.00;99.90
10692;DHT22;5396;50.950;6.988;2024-03-17T05:48:09;4.90;99.90
10692;DHT22;5396;50.950;6.988;2024-03-17T05:50:35;4.80;99.90
10692;DHT22;5396;50.950;6.988;2024-03-17T05:53:00;4.80;99.90
10692;DHT22;5396;50.950;6.988;2024-03-17T05:55:26;4.80;99.90
10692;DHT22;5396;50.950;6.988;2024-03-17T05:57:51;4.80;99.90
10692;DHT22;5396;50.950;6.988;2024-03-17T06:00:17;4.70;99.90
10692;DHT22;5396;50.950;6.988;2024-03-17T06:02:43;4.80;99.90
10692;DHT22;5396;50.950;6.988;2024-03-17T06:05:09;4.80;99.90
10692;DHT22;5396;50.950;6.988;2024-03-17T06:07:37;4.90;99.90
10692;DHT22;5396;50.950;6.988;2024-03-17T06:10:03;4.90;99.90
10692;DHT22;5396;50.950;6.988;2024-03-17T06:12:28;4.90;99.90
10692;DHT22;5396;50.950;6.988;2024-03-17T06:14:56;4.90;99.90
10692;DHT22;5396;50.950;6.988;2024-03-17T06:17:21;4.90;99.90
10692;DHT22;5396;50.950;6.988;2024-03-17T06:19:46;4.90;99.90
10692;DHT22;5396;50.950;6.988;2024-03-17T06:22:12;4.90;99.90
10692;DHT22;5396;50.950;6.988;2024-03-17T06:24:37;4.90;99.90
10692;DHT22;5396;50.950;6.988;2024-03-17T06:27:03;4.90;99.90
10692;DHT22;5396;50.950;6.988;2024-03-17T06:29:29;5.00;99.90
10692;DHT22;5396;50.950;6.988;2024-03-17T06:31:54;5.10;99.90
10692;DHT22;5396;50.950;6.988;2024-03-17T06:34:20;5.10;99.90
10692;DHT22;5396;50.950;6.988;2024-03-17T06:36:47;5.10;99.90
10692;DHT22;5396;50.950;6.988;2024-03-17T06:39:13;5.10;99.90
10692;DHT22;5396;50.950;6.988;2024-03-17T06:41:41;5.10;99.90
10692;DHT22;5396;50.950;6.988;2024-03-17T06:44:07;5.20;99.90
10692;DHT22;5396;50.950;6.988;2024-03-17T06:46:32;5.20;99.90
10692;DHT22;5396;50.950;6.988;2024-03-17T06:48:58;5.20;99.90
10692;DHT22;5396;50.950;6.988;2024-03-17T06:51:25;5.20;99.90
10692;DHT22;5396;50.950;6.988;2024-03-17T06:53:50;5.40;99.90
10692;DHT22;5396;50.950;6.988;2024-03-17T06:56:16;5.40;99.90
10692;DHT22;5396;50.950;6.988;2024-03-17T06:58:41;5.50;99.90
10692;DHT22;5396;50.950;6.988;2024-03-17T07:01:07;5.40;99.90
10692;DHT22;5396;50.950;6.988;2024-03-17T07:03:34;5.50;99.90
10692;DHT22;5396;50.950;6.988;2024-03-17T07:06:00;5.50;99.90
10692;DHT22;5396;50.950;6.988;2024-03-17T07:08:29;5.50;99.90
10692;DHT22;5396;50.950;6.988;2024-03-17T07:10:58;5.50;99.90
10692;DHT22;5396;50.950;6.988;2024-03-17T07:13:24;5.60;99.90
10692;DHT22;5396;50.950;6.988;2024-03-17T07:15:50;5.70;99.90
10692;DHT22;5396;50.950;6.988;2024-03-17T07:18:15;5.70;99.90
10692;DHT22;5396;50.950;6.988;2024-03-17T07:20:41;5.70;99.90
10692;DHT22;5396;50.950;6.988;2024-03-17T07:23:07;5.80;99.90
10692;DHT22;5396;50.950;6.988;2024-03-17T07:25:32;5.90;99.90
10692;DHT22;5396;50.950;6.988;2024-03-17T07:27:58;6.00;99.90
10692;DHT22;5396;50.950;6.988;2024-03-17T07:30:27;6.10;99.90
10692;DHT22;5396;50.950;6.988;2024-03-17T07:32:53;6.20;99.90
10692;DHT22;5396;50.950;6.988;2024-03-17T07:35:19;6.30;99.90
10692;DHT22;5396;50.950;6.988;2024-03-17T07:37:46;6.30;99.90
10692;DHT22;5396;50.950;6.988;2024-03-17T07:40:15;6.50;99.90
10692;DHT22;5396;50.950;6.988;2024-03-17T07:42:41;6.60;99.90
10692;DHT22;5396;50.950;6.988;2024-03-17T07:45:07;6.70;99.90
10692;DHT22;5396;50.950;6.988;2024-03-17T07:47:33;6.80;99.90
10692;DHT22;5396;50.950;6.988;2024-03-17T07:50:04;6.90;99.90
10692;DHT22;5396;50.950;6.988;2024-03-17T07:52:31;7.00;99.90
10692;DHT22;5396;50.950;6.988;2024-03-17T07:54:57;7.10;99.90
10692;DHT22;5396;50.950;6.988;2024-03-17T07:57:22;7.20;99.90
10692;DHT22;5396;50.950;6.988;2024-03-17T07:59:51;7.30;99.90
10692;DHT22;5396;50.950;6.988;2024-03-17T08:02:16;7.40;99.90
10692;DHT22;5396;50.950;6.988;2024-03-17T08:04:42;7.50;99.90
10692;DHT22;5396;50.950;6.988;2024-03-17T08:07:09;7.60;99.90
10692;DHT22;5396;50.950;6.988;2024-03-17T08:09:35;7.70;99.90
10692;DHT22;5396;50.950;6.988;2024-03-17T08:12:01;7.80;99.90
10692;DHT22;5396;50.950;6.988;2024-03-17T08:14:29;8.00;99.90
10692;DHT22;5396;50.950;6.988;2024-03-17T08:16:55;8.20;99.90
10692;DHT22;5396;50.950;6.988;2024-03-17T08:19:21;8.40;99.90
10692;DHT22;5396;50.950;6.988;2024-03-17T08:21:46;8.50;99.90
10692;DHT22;5396;50.950;6.988;2024-03-17T08:24:12;8.60;99.90
10692;DHT22;5396;50.950;6.988;2024-03-17T08:26:38;8.70;99.90
10692;DHT22;5396;50.950;6.988;2024-03-17T08:29:05;8.90;99.90
10692;DHT22;5396;50.950;6.988;2024-03-17T08:31:31;9.00;99.90
10692;DHT22;5396;50.950;6.988;2024-03-17T08:33:57;9.00;99.90
10692;DHT22;5396;50.950;6.988;2024-03-17T08:36:23;9.00;99.90
10692;DHT22;5396;50.950;6.988;2024-03-17T08:38:49;9.10;99.90
10692;DHT22;5396;50.950;6.988;2024-03-17T08:41:15;9.10;99.90
10692;DHT22;5396;50.950;6.988;2024-03-17T08:43:41;9.20;99.90
10692;DHT22;5396;50.950;6.988;2024-03-17T08:46:08;9.30;99.90
10692;DHT22;5396;50.950;6.988;2024-03-17T08:48:38;9.60;99.90
10692;DHT22;5396;50.950;6.988;2024-03-17T08:51:04;9.70;99.90
10692;DHT22;5396;50.950;6.988;2024-03-17T08:53:30;9.70;99.90
10692;DHT22;5396;50.950;6.988;2024-03-17T08:55:56;9.70;99.90
10692;DHT22;5396;50.950;6.988;2024-03-17T08:58:22;9.70;99.90
10692;DHT22;5396;50.950;6.988;2024-03-17T09:00:48;9.80;99.90
10692;DHT22;5396;50.950;6.988;2024-03-17T09:03:13;9.90;99.90
10692;DHT22;5396;50.950;6.988;2024-03-17T09:05:40;10.00;99.90
10692;DHT22;5396;50.950;6.988;2024-03-17T09:08:06;10.10;99.90
10692;DHT22;5396;50.950;6.988;2024-03-17T09:10:41;10.30;99.90
10692;DHT22;5396;50.950;6.988;2024-03-17T09:13:09;10.40;99.90
10692;DHT22;5396;50.950;6.988;2024-03-17T09:15:37;10.40;99.90
10692;DHT22;5396;50.950;6.988;2024-03-17T09:18:06;10.50;99.90
10692;DHT22;5396;50.950;6.988;2024-03-17T09:20:31;10.70;99.90
10692;DHT22;5396;50.950;6.988;2024-03-17T09:22:57;10.90;99.90
10692;DHT22;5396;50.950;6.988;2024-03-17T09:25:22;10.90;99.90
10692;DHT22;5396;50.950;6.988;2024-03-17T09:27:48;10.90;99.90
10692;DHT22;5396;50.950;6.988;2024-03-17T09:30:14;11.00;99.90
10692;DHT22;5396;50.950;6.988;2024-03-17T09:32:40;11.10;99.90
10692;DHT22;5396;50.950;6.988;2024-03-17T09:35:06;11.10;99.90
10692;DHT22;5396;50.950;6.988;2024-03-17T09:37:33;11.00;99.90
10692;DHT22;5396;50.950;6.988;2024-03-17T09:40:03;11.10;99.90
10692;DHT22;5396;50.950;6.988;2024-03-17T09:42:31;11.20;99.90
10692;DHT22;5396;50.950;6.988;2024-03-17T09:44:57;11.30;99.90
10692;DHT22;5396;50.950;6.988;2024-03-17T09:47:24;11.50;99.90
10692;DHT22;5396;50.950;6.988;2024-03-17T09:49:50;11.60;99.90
10692;DHT22;5396;50.950;6.988;2024-03-17T09:52:20;11.70;99.90
10692;DHT22;5396;50.950;6.988;2024-03-17T09:54:46;11.70;99.90
10692;DHT22;5396;50.950;6.988;2024-03-17T09:57:16;11.80;99.90
10692;DHT22;5396;50.950;6.988;2024-03-17T09:59:42;12.00;99.90
10692;DHT22;5396;50.950;6.988;2024-03-17T10:02:12;12.10;99.90
10692;DHT22;5396;50.950;6.988;2024-03-17T10:04:41;12.10;99.90
10692;DHT22;5396;50.950;6.988;2024-03-17T10:07:07;12.20;99.90
10692;DHT22;5396;50.950;6.988;2024-03-17T10:09:32;12.10;99.90
10692;DHT22;5396;50.950;6.988;2024-03-17T10:11:58;12.20;99.90
10692;DHT22;5396;50.950;6.988;2024-03-17T10:14:23;12.20;99.90
10692;DHT22;5396;50.950;6.988;2024-03-17T10:16:49;12.30;99.90
10692;DHT22;5396;50.950;6.988;2024-03-17T10:19:20;12.40;99.90
10692;DHT22;5396;50.950;6.988;2024-03-17T10:21:47;12.40;99.90
10692;DHT22;5396;50.950;6.988;2024-03-17T10:24:21;12.40;99.90
10692;DHT22;5396;50.950;6.988;2024-03-17T10:26:48;12.30;99.90
10692;DHT22;5396;50.950;6.988;2024-03-17T10:31:46;12.20;99.90
10692;DHT22;5396;50.950;6.988;2024-03-17T10:34:15;12.30;99.90
10692;DHT22;5396;50.950;6.988;2024-03-17T10:36:45;12.40;99.90
10692;DHT22;5396;50.950;6.988;2024-03-17T10:39:25;12.70;99.90
10692;DHT22;5396;50.950;6.988;2024-03-17T10:41:57;13.00;99.90
10692;DHT22;5396;50.950;6.988;2024-03-17T10:44:27;13.20;99.90
10692;DHT22;5396;50.950;6.988;2024-03-17T10:46:54;13.20;99.90
10692;DHT22;5396;50.950;6.988;2024-03-17T10:49:21;13.20;99.90
10692;DHT22;5396;50.950;6.988;2024-03-17T10:51:46;13.10;99.90
10692;DHT22;5396;50.950;6.988;2024-03-17T10:54:17;12.90;99.90
10692;DHT22;5396;50.950;6.988;2024-03-17T10:56:47;13.00;99.90
10692;DHT22;5396;50.950;6.988;2024-03-17T10:59:13;13.10;99.90
10692;DHT22;5396;50.950;6.988;2024-03-17T11:01:38;13.10;99.90
10692;DHT22;5396;50.950;6.988;2024-03-17T11:04:05;13.20;99.90
10692;DHT22;5396;50.950;6.988;2024-03-17T11:06:33;13.10;99.90
10692;DHT22;5396;50.950;6.988;2024-03-17T11:08:59;13.00;99.90
10692;DHT22;5396;50.950;6.988;2024-03-17T11:11:35;13.10;99.90
10692;DHT22;5396;50.950;6.988;2024-03-17T11:14:16;13.10;99.90
10692;DHT22;5396;50.950;6.988;2024-03-17T11:16:42;13.00;99.90
10692;DHT22;5396;50.950;6.988;2024-03-17T11:19:07;13.10;99.90
10692;DHT22;5396;50.950;6.988;2024-03-17T11:21:33;13.10;99.90
10692;DHT22;5396;50.950;6.988;2024-03-17T11:24:00;13.30;99.90
10692;DHT22;5396;50.950;6.988;2024-03-17T11:26:27;13.50;99.90
10692;DHT22;5396;50.950;6.988;2024-03-17T11:28:53;13.60;99.90
10692;DHT22;5396;50.950;6.988;2024-03-17T11:31:34;13.60;99.90
10692;DHT22;5396;50.950;6.988;2024-03-17T11:34:04;13.90;99.90
10692;DHT22;5396;50.950;6.988;2024-03-17T11:36:32;14.00;99.90
10692;DHT22;5396;50.950;6.988;2024-03-17T11:38:59;14.10;99.90
10692;DHT22;5396;50.950;6.988;2024-03-17T11:46:56;14.50;99.90
10692;DHT22;5396;50.950;6.988;2024-03-17T11:51:49;14.90;99.90
10692;DHT22;5396;50.950;6.988;2024-03-17T11:54:16;15.00;99.90
10692;DHT22;5396;50.950;6.988;2024-03-17T11:56:50;14.90;99.90
10692;DHT22;5396;50.950;6.988;2024-03-17T11:59:16;14.80;99.90
10692;DHT22;5396;50.950;6.988;2024-03-17T12:01:45;14.80;99.90
10692;DHT22;5396;50.950;6.988;2024-03-17T12:04:16;14.80;99.90
10692;DHT22;5396;50.950;6.988;2024-03-17T12:09:10;14.90;99.90
10692;DHT22;5396;50.950;6.988;2024-03-17T12:11:42;15.00;99.90
10692;DHT22;5396;50.950;6.988;2024-03-17T12:14:09;15.10;99.90
10692;DHT22;5396;50.950;6.988;2024-03-17T12:16:37;15.10;99.90
10692;DHT22;5396;50.950;6.988;2024-03-17T12:19:06;14.90;99.90
10692;DHT22;5396;50.950;6.988;2024-03-17T12:21:32;14.90;99.90
10692;DHT22;5396;50.950;6.988;2024-03-17T12:23:57;15.00;99.90
10692;DHT22;5396;50.950;6.988;2024-03-17T12:26:23;15.10;99.90
10692;DHT22;5396;50.950;6.988;2024-03-17T12:28:49;15.10;99.90
10692;DHT22;5396;50.950;6.988;2024-03-17T12:31:15;15.10;99.90
10692;DHT22;5396;50.950;6.988;2024-03-17T12:33:40;15.10;99.90
10692;DHT22;5396;50.950;6.988;2024-03-17T12:36:10;15.20;99.90
10692;DHT22;5396;50.950;6.988;2024-03-17T12:38:37;15.20;99.90
10692;DHT22;5396;50.950;6.988;2024-03-17T12:41:03;15.20;99.90
10692;DHT22;5396;50.950;6.988;2024-03-17T12:43:32;15.30;99.90
10692;DHT22;5396;50.950;6.988;2024-03-17T12:45:57;15.40;99.90
10692;DHT22;5396;50.950;6.988;2024-03-17T12:48:23;15.50;99.90
10692;DHT22;5396;50.950;6.988;2024-03-17T12:50:49;15.50;99.90
10692;DHT22;5396;50.950;6.988;2024-03-17T12:53:16;15.50;99.90
10692;DHT22;5396;50.950;6.988;2024-03-17T12:55:52;15.40;99.90
10692;DHT22;5396;50.950;6.988;2024-03-17T12:58:37;15.30;99.90
10692;DHT22;5396;50.950;6.988;2024-03-17T13:01:21;15.20;99.90
10692;DHT22;5396;50.950;6.988;2024-03-17T13:03:47;15.40;99.90
10692;DHT22;5396;50.950;6.988;2024-03-17T13:06:21;15.50;99.90
10692;DHT22;5396;50.950;6.988;2024-03-17T13:08:49;15.70;99.90
10692;DHT22;5396;50.950;6.988;2024-03-17T13:11:15;15.70;99.90
10692;DHT22;5396;50.950;6.988;2024-03-17T13:13:40;15.80;99.90
10692;DHT22;5396;50.950;6.988;2024-03-17T13:16:06;15.60;99.90
10692;DHT22;5396;50.950;6.988;2024-03-17T13:18:34;15.50;99.90
10692;DHT22;5396;50.950;6.988;2024-03-17T13:20:59;15.50;99.90
10692;DHT22;5396;50.950;6.988;2024-03-17T13:23:26;15.50;99.90
10692;DHT22;5396;50.950;6.988;2024-03-17T13:25:52;15.40;99.90
10692;DHT22;5396;50.950;6.988;2024-03-17T13:28:17;15.30;99.90
10692;DHT22;5396;50.950;6.988;2024-03-17T13:30:43;15.10;99.90
10692;DHT22;5396;50.950;6.988;2024-03-17T13:33:09;15.10;99.90
10692;DHT22;5396;50.950;6.988;2024-03-17T13:35:36;15.00;99.90
10692;DHT22;5396;50.950;6.988;2024-03-17T13:38:09;14.90;99.90
10692;DHT22;5396;50.950;6.988;2024-03-17T13:40:42;14.80;99.90
10692;DHT22;5396;50.950;6.988;2024-03-17T13:43:22;14.70;99.90
10692;DHT22;5396;50.950;6.988;2024-03-17T13:45:57;14.60;99.90
10692;DHT22;5396;50.950;6.988;2024-03-17T13:48:25;14.70;99.90
10692;DHT22;5396;50.950;6.988;2024-03-17T13:51:02;14.70;99.90
10692;DHT22;5396;50.950;6.988;2024-03-17T13:53:29;14.80;99.90
10692;DHT22;5396;50.950;6.988;2024-03-17T13:55:55;14.80;99.90
10692;DHT22;5396;50.950;6.988;2024-03-17T13:58:21;14.90;99.90
10692;DHT22;5396;50.950;6.988;2024-03-17T14:00:49;14.80;99.90
10692;DHT22;5396;50.950;6.988;2024-03-17T14:03:16;14.80;99.90
10692;DHT22;5396;50.950;6.988;2024-03-17T14:05:45;14.80;99.90
10692;DHT22;5396;50.950;6.988;2024-03-17T14:08:11;14.70;99.90
10692;DHT22;5396;50.950;6.988;2024-03-17T14:10:37;14.70;99.90
10692;DHT22;5396;50.950;6.988;2024-03-17T14:13:03;14.80;99.90
10692;DHT22;5396;50.950;6.988;2024-03-17T14:15:28;14.80;99.90
10692;DHT22;5396;50.950;6.988;2024-03-17T14:17:54;14.80;99.90
10692;DHT22;5396;50.950;6.988;2024-03-17T14:20:21;15.00;99.90
10692;DHT22;5396;50.950;6.988;2024-03-17T14:22:47;15.00;99.90
10692;DHT22;5396;50.950;6.988;2024-03-17T14:25:16;15.10;99.90
10692;DHT22;5396;50.950;6.988;2024-03-17T14:27:42;15.10;99.90
10692;DHT22;5396;50.950;6.988;2024-03-17T14:30:08;15.10;99.90
10692;DHT22;5396;50.950;6.988;2024-03-17T14:32:35;15.10;99.90
10692;DHT22;5396;50.950;6.988;2024-03-17T14:35:01;15.20;99.90
10692;DHT22;5396;50.950;6.988;2024-03-17T14:37:26;15.30;99.90
10692;DHT22;5396;50.950;6.988;2024-03-17T14:39:52;15.50;99.90
10692;DHT22;5396;50.950;6.988;2024-03-17T14:42:18;15.70;99.90
10692;DHT22;5396;50.950;6.988;2024-03-17T14:44:45;15.90;99.90
10692;DHT22;5396;50.950;6.988;2024-03-17T14:47:10;16.20;99.90
10692;DHT22;5396;50.950;6.988;2024-03-17T14:49:36;16.70;99.90
10692;DHT22;5396;50.950;6.988;2024-03-17T14:52:01;16.90;99.90
10692;DHT22;5396;50.950;6.988;2024-03-17T14:54:27;16.90;99.90
10692;DHT22;5396;50.950;6.988;2024-03-17T14:56:52;16.80;99.90
10692;DHT22;5396;50.950;6.988;2024-03-17T14:59:21;16.90;99.90
10692;DHT22;5396;50.950;6.988;2024-03-17T15:01:46;16.90;99.90
10692;DHT22;5396;50.950;6.988;2024-03-17T15:04:13;17.10;99.90
10692;DHT22;5396;50.950;6.988;2024-03-17T15:06:38;17.50;99.90
10692;DHT22;5396;50.950;6.988;2024-03-17T15:09:04;17.80;99.90
10692;DHT22;5396;50.950;6.988;2024-03-17T15:11:30;18.40;99.90
10692;DHT22;5396;50.950;6.988;2024-03-17T15:13:56;18.40;99.90
10692;DHT22;5396;50.950;6.988;2024-03-17T15:16:21;18.60;99.90
10692;DHT22;5396;50.950;6.988;2024-03-17T15:18:48;19.20;99.90
10692;DHT22;5396;50.950;6.988;2024-03-17T15:21:14;19.80;99.90
10692;DHT22;5396;50.950;6.988;2024-03-17T15:23:40;20.40;99.90
10692;DHT22;5396;50.950;6.988;2024-03-17T15:26:06;20.80;99.90
10692;DHT22;5396;50.950;6.988;2024-03-17T15:28:35;20.50;99.90
10692;DHT22;5396;50.950;6.988;2024-03-17T15:31:03;20.20;99.90
10692;DHT22;5396;50.950;6.988;2024-03-17T15:33:29;19.00;99.90
10692;DHT22;5396;50.950;6.988;2024-03-17T15:35:55;18.40;99.90
10692;DHT22;5396;50.950;6.988;2024-03-17T15:38:20;18.10;99.90
10692;DHT22;5396;50.950;6.988;2024-03-17T15:40:47;17.80;99.90
10692;DHT22;5396;50.950;6.988;2024-03-17T15:43:13;17.30;99.90
10692;DHT22;5396;50.950;6.988;2024-03-17T15:45:38;16.90;99.90
10692;DHT22;5396;50.950;6.988;2024-03-17T15:48:04;16.60;99.90
10692;DHT22;5396;50.950;6.988;2024-03-17T15:50:30;16.30;99.90
10692;DHT22;5396;50.950;6.988;2024-03-17T15:52:56;16.10;99.90
10692;DHT22;5396;50.950;6.988;2024-03-17T15:55:22;15.90;99.90
10692;DHT22;5396;50.950;6.988;2024-03-17T15:57:49;15.80;99.90
10692;DHT22;5396;50.950;6.988;2024-03-17T16:00:14;15.70;99.90
10692;DHT22;5396;50.950;6.988;2024-03-17T16:02:44;15.90;99.90
10692;DHT22;5396;50.950;6.988;2024-03-17T16:05:11;16.90;99.90
10692;DHT22;5396;50.950;6.988;2024-03-17T16:07:38;17.60;99.90